sensor_id;sensor_type;location;lat;lon;timestamp;P1;durP1;ratioP1;P2;durP2;ratioP2
22778;SDS011;11556;51.194;3.800;2023-08-06T00:00:14;12.52;;;6.53;;
22778;SDS011;11556;51.194;3.800;2023-08-06T00:02:40;12.18;;;6.85;;
22778;SDS011;11556;51.194;3.800;2023-08-06T00:05:05;14.63;;;7.82;;
22778;SDS011;11556;51.194;3.800;2023-08-06T00:07:31;14.05;;;7.57;;
22778;SDS011;11556;51.194;3.800;2023-08-06T00:09:57;12.18;;;7.65;;
22778;SDS011;11556;51.194;3.800;2023-08-06T00:12:23;17.92;;;8.90;;
22778;SDS011;11556;51.194;3.800;2023-08-06T00:14:52;13.20;;;8.10;;
22778;SDS011;11556;51.194;3.800;2023-08-06T00:17:19;17.25;;;8.80;;
22778;SDS011;11556;51.194;3.800;2023-08-06T00:19:44;16.58;;;8.85;;
22778;SDS011;11556;51.194;3.800;2023-08-06T00:22:10;11.60;;;8.10;;
22778;SDS011;11556;51.194;3.800;2023-08-06T00:24:36;15.50;;;8.82;;
22778;SDS011;11556;51.194;3.800;2023-08-06T00:27:01;14.07;;;9.07;;
22778;SDS011;11556;51.194;3.800;2023-08-06T00:29:28;15.43;;;9.18;;
22778;SDS011;11556;51.194;3.800;2023-08-06T00:31:53;15.57;;;8.45;;
22778;SDS011;11556;51.194;3.800;2023-08-06T00:34:19;14.60;;;8.20;;
22778;SDS011;11556;51.194;3.800;2023-08-06T00:36:44;15.13;;;8.25;;
22778;SDS011;11556;51.194;3.800;2023-08-06T00:39:10;18.13;;;8.15;;
22778;SDS011;11556;51.194;3.800;2023-08-06T00:41:36;18.67;;;9.18;;
22778;SDS011;11556;51.194;3.800;2023-08-06T00:44:02;22.50;;;9.48;;
22778;SDS011;11556;51.194;3.800;2023-08-06T00:46:28;18.80;;;10.00;;
22778;SDS011;11556;51.194;3.800;2023-08-06T00:48:55;19.50;;;10.00;;
22778;SDS011;11556;51.194;3.800;2023-08-06T00:51:21;16.92;;;10.00;;
22778;SDS011;11556;51.194;3.800;2023-08-06T00:53:48;19.25;;;9.88;;
22778;SDS011;11556;51.194;3.800;2023-08-06T00:56:15;14.70;;;8.82;;
22778;SDS011;11556;51.194;3.800;2023-08-06T00:58:41;18.65;;;8.55;;
22778;SDS011;11556;51.194;3.800;2023-08-06T01:01:07;15.95;;;7.57;;
22778;SDS011;11556;51.194;3.800;2023-08-06T01:03:32;17.17;;;7.38;;
22778;SDS011;11556;51.194;3.800;2023-08-06T01:05:58;14.48;;;7.57;;
22778;SDS011;11556;51.194;3.800;2023-08-06T01:13:58;17.92;;;8.15;;
22778;SDS011;11556;51.194;3.800;2023-08-06T01:16:27;18.83;;;8.20;;
22778;SDS011;11556;51.194;3.800;2023-08-06T01:18:55;20.15;;;8.15;;
22778;SDS011;11556;51.194;3.800;2023-08-06T01:21:23;19.25;;;8.00;;
22778;SDS011;11556;51.194;3.800;2023-08-06T01:23:48;20.67;;;9.00;;
22778;SDS011;11556;51.194;3.800;2023-08-06T01:31:24;23.50;;;10.07;;
22778;SDS011;11556;51.194;3.800;2023-08-06T01:33:56;19.90;;;8.80;;
22778;SDS011;11556;51.194;3.800;2023-08-06T01:36:24;20.48;;;8.70;;
22778;SDS011;11556;51.194;3.800;2023-08-06T01:38:52;20.80;;;8.70;;
22778;SDS011;11556;51.194;3.800;2023-08-06T01:41:18;19.88;;;8.48;;
22778;SDS011;11556;51.194;3.800;2023-08-06T01:43:44;17.45;;;8.02;;
22778;SDS011;11556;51.194;3.800;2023-08-06T01:46:09;16.70;;;7.65;;
22778;SDS011;11556;51.194;3.800;2023-08-06T01:48:35;5.50;;;3.17;;
22778;SDS011;11556;51.194;3.800;2023-08-06T01:51:03;9.10;;;4.38;;
22778;SDS011;11556;51.194;3.800;2023-08-06T01:53:30;5.57;;;3.30;;
22778;SDS011;11556;51.194;3.800;2023-08-06T01:55:56;4.50;;;3.25;;
22778;SDS011;11556;51.194;3.800;2023-08-06T01:58:22;6.45;;;3.75;;
22778;SDS011;11556;51.194;3.800;2023-08-06T02:00:48;6.97;;;4.18;;
22778;SDS011;11556;51.194;3.800;2023-08-06T02:03:13;8.60;;;4.57;;
22778;SDS011;11556;51.194;3.800;2023-08-06T02:05:39;6.82;;;4.88;;
22778;SDS011;11556;51.194;3.800;2023-08-06T02:08:05;12.32;;;6.40;;
22778;SDS011;11556;51.194;3.800;2023-08-06T02:10:31;12.43;;;6.97;;
22778;SDS011;11556;51.194;3.800;2023-08-06T02:12:56;12.57;;;6.47;;
22778;SDS011;11556;51.194;3.800;2023-08-06T02:15:22;14.27;;;6.63;;
22778;SDS011;11556;51.194;3.800;2023-08-06T02:17:48;11.57;;;5.72;;
22778;SDS011;11556;51.194;3.800;2023-08-06T02:20:13;12.73;;;5.05;;
22778;SDS011;11556;51.194;3.800;2023-08-06T02:22:39;6.47;;;3.33;;
22778;SDS011;11556;51.194;3.800;2023-08-06T02:25:05;7.05;;;2.83;;
22778;SDS011;11556;51.194;3.800;2023-08-06T02:27:31;6.70;;;1.90;;
22778;SDS011;11556;51.194;3.800;2023-08-06T02:29:56;5.70;;;2.00;;
22778;SDS011;11556;51.194;3.800;2023-08-06T02:32:22;7.38;;;2.40;;
22778;SDS011;11556;51.194;3.800;2023-08-06T02:34:47;7.05;;;2.33;;
22778;SDS011;11556;51.194;3.800;2023-08-06T02:37:13;12.95;;;2.55;;
22778;SDS011;11556;51.194;3.800;2023-08-06T02:39:39;11.27;;;3.17;;
22778;SDS011;11556;51.194;3.800;2023-08-06T02:42:07;10.25;;;3.28;;
22778;SDS011;11556;51.194;3.800;2023-08-06T02:44:33;9.25;;;3.28;;
22778;SDS011;11556;51.194;3.800;2023-08-06T02:46:59;8.25;;;2.78;;
22778;SDS011;11556;51.194;3.800;2023-08-06T02:49:25;8.38;;;3.17;;
22778;SDS011;11556;51.194;3.800;2023-08-06T02:51:51;10.73;;;3.20;;
22778;SDS011;11556;51.194;3.800;2023-08-06T02:54:17;12.32;;;3.50;;
22778;SDS011;11556;51.194;3.800;2023-08-06T02:56:44;13.55;;;3.88;;
22778;SDS011;11556;51.194;3.800;2023-08-06T02:59:10;14.68;;;3.70;;
22778;SDS011;11556;51.194;3.800;2023-08-06T03:01:37;9.55;;;3.60;;
22778;SDS011;11556;51.194;3.800;2023-08-06T03:04:02;14.43;;;3.85;;
22778;SDS011;11556;51.194;3.800;2023-08-06T03:06:28;9.65;;;3.50;;
22778;SDS011;11556;51.194;3.800;2023-08-06T03:08:54;21.95;;;4.35;;
22778;SDS011;11556;51.194;3.800;2023-08-06T03:11:19;12.10;;;4.05;;
22778;SDS011;11556;51.194;3.800;2023-08-06T03:13:46;14.00;;;4.50;;
22778;SDS011;11556;51.194;3.800;2023-08-06T03:16:15;16.25;;;3.88;;
22778;SDS011;11556;51.194;3.800;2023-08-06T03:18:40;17.63;;;4.50;;
22778;SDS011;11556;51.194;3.800;2023-08-06T03:21:06;17.10;;;5.10;;
22778;SDS011;11556;51.194;3.800;2023-08-06T03:23:32;10.98;;;4.85;;
22778;SDS011;11556;51.194;3.800;2023-08-06T03:26:01;9.00;;;4.25;;
22778;SDS011;11556;51.194;3.800;2023-08-06T03:28:27;11.93;;;4.93;;
22778;SDS011;11556;51.194;3.800;2023-08-06T03:31:02;9.75;;;4.70;;
22778;SDS011;11556;51.194;3.800;2023-08-06T03:33:29;9.23;;;4.82;;
22778;SDS011;11556;51.194;3.800;2023-08-06T03:35:55;8.52;;;5.50;;
22778;SDS011;11556;51.194;3.800;2023-08-06T03:38:21;10.60;;;6.65;;
22778;SDS011;11556;51.194;3.800;2023-08-06T03:40:47;19.75;;;7.63;;
22778;SDS011;11556;51.194;3.800;2023-08-06T03:43:13;14.52;;;7.88;;
22778;SDS011;11556;51.194;3.800;2023-08-06T03:45:40;15.40;;;6.80;;
22778;SDS011;11556;51.194;3.800;2023-08-06T03:48:06;14.43;;;6.53;;
22778;SDS011;11556;51.194;3.800;2023-08-06T03:50:32;13.45;;;5.40;;
22778;SDS011;11556;51.194;3.800;2023-08-06T03:52:58;14.82;;;5.63;;
22778;SDS011;11556;51.194;3.800;2023-08-06T03:55:23;18.67;;;5.63;;
22778;SDS011;11556;51.194;3.800;2023-08-06T03:57:49;14.70;;;5.57;;
22778;SDS011;11556;51.194;3.800;2023-08-06T04:00:15;24.65;;;5.82;;
22778;SDS011;11556;51.194;3.800;2023-08-06T04:02:41;16.48;;;5.50;;
22778;SDS011;11556;51.194;3.800;2023-08-06T04:05:07;14.88;;;5.40;;
22778;SDS011;11556;51.194;3.800;2023-08-06T04:07:32;17.52;;;5.40;;
22778;SDS011;11556;51.194;3.800;2023-08-06T04:09:59;15.52;;;5.10;;
22778;SDS011;11556;51.194;3.800;2023-08-06T04:12:26;15.30;;;4.90;;
22778;SDS011;11556;51.194;3.800;2023-08-06T04:14:53;11.57;;;4.07;;
22778;SDS011;11556;51.194;3.800;2023-08-06T04:17:19;15.82;;;3.90;;
22778;SDS011;11556;51.194;3.800;2023-08-06T04:19:50;14.40;;;4.10;;
22778;SDS011;11556;51.194;3.800;2023-08-06T04:22:16;13.60;;;3.75;;
22778;SDS011;11556;51.194;3.800;2023-08-06T04:24:42;13.43;;;3.65;;
22778;SDS011;11556;51.194;3.800;2023-08-06T04:27:09;6.18;;;2.78;;
22778;SDS011;11556;51.194;3.800;2023-08-06T04:29:35;9.65;;;2.70;;
22778;SDS011;11556;51.194;3.800;2023-08-06T04:32:01;10.85;;;2.67;;
22778;SDS011;11556;51.194;3.800;2023-08-06T04:34:26;15.35;;;3.03;;
22778;SDS011;11556;51.194;3.800;2023-08-06T04:36:52;8.43;;;2.72;;
22778;SDS011;11556;51.194;3.800;2023-08-06T04:39:18;13.27;;;2.78;;
22778;SDS011;11556;51.194;3.800;2023-08-06T04:41:43;9.57;;;2.80;;
22778;SDS011;11556;51.194;3.800;2023-08-06T04:44:09;8.05;;;2.63;;
22778;SDS011;11556;51.194;3.800;2023-08-06T04:46:35;7.25;;;2.80;;
22778;SDS011;11556;51.194;3.800;2023-08-06T04:49:00;8.85;;;2.92;;
22778;SDS011;11556;51.194;3.800;2023-08-06T04:51:26;5.55;;;2.88;;
22778;SDS011;11556;51.194;3.800;2023-08-06T04:53:52;7.93;;;3.20;;
22778;SDS011;11556;51.194;3.800;2023-08-06T04:56:17;5.60;;;3.00;;
22778;SDS011;11556;51.194;3.800;2023-08-06T04:58:43;8.70;;;2.80;;
22778;SDS011;11556;51.194;3.800;2023-08-06T05:01:09;7.85;;;3.15;;
22778;SDS011;11556;51.194;3.800;2023-08-06T05:03:34;12.60;;;3.25;;
22778;SDS011;11556;51.194;3.800;2023-08-06T05:06:00;13.40;;;3.15;;
22778;SDS011;11556;51.194;3.800;2023-08-06T05:08:26;10.30;;;3.30;;
22778;SDS011;11556;51.194;3.800;2023-08-06T05:10:51;11.30;;;2.83;;
22778;SDS011;11556;51.194;3.800;2023-08-06T05:13:17;11.98;;;3.15;;
22778;SDS011;11556;51.194;3.800;2023-08-06T05:15:43;9.05;;;3.20;;
22778;SDS011;11556;51.194;3.800;2023-08-06T05:18:10;9.90;;;3.00;;
22778;SDS011;11556;51.194;3.800;2023-08-06T05:20:37;9.73;;;3.25;;
22778;SDS011;11556;51.194;3.800;2023-08-06T05:23:03;5.93;;;2.83;;
22778;SDS011;11556;51.194;3.800;2023-08-06T05:25:29;8.05;;;3.03;;
22778;SDS011;11556;51.194;3.800;2023-08-06T05:27:55;8.85;;;2.92;;
22778;SDS011;11556;51.194;3.800;2023-08-06T05:30:20;9.05;;;2.50;;
22778;SDS011;11556;51.194;3.800;2023-08-06T05:32:46;7.82;;;2.83;;
22778;SDS011;11556;51.194;3.800;2023-08-06T05:35:12;6.07;;;2.60;;
22778;SDS011;11556;51.194;3.800;2023-08-06T05:37:38;9.43;;;2.90;;
22778;SDS011;11556;51.194;3.800;2023-08-06T05:40:05;11.77;;;3.17;;
22778;SDS011;11556;51.194;3.800;2023-08-06T05:42:31;7.00;;;2.97;;
22778;SDS011;11556;51.194;3.800;2023-08-06T05:44:56;8.05;;;2.55;;
22778;SDS011;11556;51.194;3.800;2023-08-06T05:47:22;11.13;;;2.28;;
22778;SDS011;11556;51.194;3.800;2023-08-06T05:49:47;8.18;;;2.30;;
22778;SDS011;11556;51.194;3.800;2023-08-06T05:52:13;6.22;;;2.20;;
22778;SDS011;11556;51.194;3.800;2023-08-06T05:54:39;7.70;;;2.05;;
22778;SDS011;11556;51.194;3.800;2023-08-06T05:57:05;9.27;;;1.55;;
22778;SDS011;11556;51.194;3.800;2023-08-06T05:59:31;3.25;;;1.00;;
22778;SDS011;11556;51.194;3.800;2023-08-06T06:01:57;8.48;;;1.27;;
22778;SDS011;11556;51.194;3.800;2023-08-06T06:04:23;5.45;;;1.00;;
22778;SDS011;11556;51.194;3.800;2023-08-06T06:06:48;8.50;;;0.90;;
22778;SDS011;11556;51.194;3.800;2023-08-06T06:09:14;10.00;;;1.17;;
22778;SDS011;11556;51.194;3.800;2023-08-06T06:11:39;14.40;;;1.38;;
22778;SDS011;11556;51.194;3.800;2023-08-06T06:14:05;7.28;;;1.13;;
22778;SDS011;11556;51.194;3.800;2023-08-06T06:16:31;7.88;;;0.98;;
22778;SDS011;11556;51.194;3.800;2023-08-06T06:18:56;6.68;;;0.93;;
22778;SDS011;11556;51.194;3.800;2023-08-06T06:21:22;6.78;;;0.88;;
22778;SDS011;11556;51.194;3.800;2023-08-06T06:23:51;7.88;;;1.00;;
22778;SDS011;11556;51.194;3.800;2023-08-06T06:26:17;13.88;;;1.38;;
22778;SDS011;11556;51.194;3.800;2023-08-06T06:28:43;8.57;;;1.35;;
22778;SDS011;11556;51.194;3.800;2023-08-06T06:31:09;6.55;;;0.90;;
22778;SDS011;11556;51.194;3.800;2023-08-06T06:33:34;9.70;;;1.35;;
22778;SDS011;11556;51.194;3.800;2023-08-06T06:36:00;6.95;;;1.30;;
22778;SDS011;11556;51.194;3.800;2023-08-06T06:38:28;11.57;;;1.55;;
22778;SDS011;11556;51.194;3.800;2023-08-06T06:40:54;12.50;;;1.85;;
22778;SDS011;11556;51.194;3.800;2023-08-06T06:43:21;8.27;;;1.33;;
22778;SDS011;11556;51.194;3.800;2023-08-06T06:45:46;9.70;;;1.40;;
22778;SDS011;11556;51.194;3.800;2023-08-06T06:48:12;8.77;;;1.25;;
22778;SDS011;11556;51.194;3.800;2023-08-06T06:50:38;7.13;;;1.05;;
22778;SDS011;11556;51.194;3.800;2023-08-06T06:53:04;8.77;;;1.30;;
22778;SDS011;11556;51.194;3.800;2023-08-06T06:55:30;8.48;;;1.08;;
22778;SDS011;11556;51.194;3.800;2023-08-06T06:57:55;6.35;;;1.08;;
22778;SDS011;11556;51.194;3.800;2023-08-06T07:00:21;7.85;;;1.20;;
22778;SDS011;11556;51.194;3.800;2023-08-06T07:02:47;11.48;;;1.20;;
22778;SDS011;11556;51.194;3.800;2023-08-06T07:05:12;4.72;;;0.93;;
22778;SDS011;11556;51.194;3.800;2023-08-06T07:07:38;7.55;;;1.08;;
22778;SDS011;11556;51.194;3.800;2023-08-06T07:10:04;6.00;;;0.90;;
22778;SDS011;11556;51.194;3.800;2023-08-06T07:12:30;9.45;;;1.08;;
22778;SDS011;11556;51.194;3.800;2023-08-06T07:14:57;7.07;;;1.05;;
22778;SDS011;11556;51.194;3.800;2023-08-06T07:17:23;6.43;;;1.02;;
22778;SDS011;11556;51.194;3.800;2023-08-06T07:19:48;6.20;;;1.10;;
22778;SDS011;11556;51.194;3.800;2023-08-06T07:22:14;4.30;;;1.10;;
22778;SDS011;11556;51.194;3.800;2023-08-06T07:24:40;6.22;;;1.00;;
22778;SDS011;11556;51.194;3.800;2023-08-06T07:27:05;8.20;;;1.10;;
22778;SDS011;11556;51.194;3.800;2023-08-06T07:29:31;4.05;;;1.05;;
22778;SDS011;11556;51.194;3.800;2023-08-06T07:31:57;9.63;;;1.20;;
22778;SDS011;11556;51.194;3.800;2023-08-06T07:34:22;8.25;;;1.60;;
22778;SDS011;11556;51.194;3.800;2023-08-06T07:36:48;5.68;;;1.10;;
22778;SDS011;11556;51.194;3.800;2023-08-06T07:39:14;5.68;;;1.27;;
22778;SDS011;11556;51.194;3.800;2023-08-06T07:41:41;3.83;;;1.10;;
22778;SDS011;11556;51.194;3.800;2023-08-06T07:44:07;8.80;;;0.90;;
22778;SDS011;11556;51.194;3.800;2023-08-06T07:46:33;6.72;;;1.20;;
22778;SDS011;11556;51.194;3.800;2023-08-06T07:48:58;9.93;;;1.33;;
22778;SDS011;11556;51.194;3.800;2023-08-06T07:51:24;6.10;;;0.93;;
22778;SDS011;11556;51.194;3.800;2023-08-06T07:53:50;10.13;;;1.42;;
22778;SDS011;11556;51.194;3.800;2023-08-06T07:56:16;7.43;;;1.33;;
22778;SDS011;11556;51.194;3.800;2023-08-06T07:58:41;11.50;;;1.25;;
22778;SDS011;11556;51.194;3.800;2023-08-06T08:01:07;11.40;;;1.35;;
22778;SDS011;11556;51.194;3.800;2023-08-06T08:03:33;11.13;;;1.40;;
22778;SDS011;11556;51.194;3.800;2023-08-06T08:05:58;8.93;;;1.60;;
22778;SDS011;11556;51.194;3.800;2023-08-06T08:08:24;21.45;;;2.42;;
22778;SDS011;11556;51.194;3.800;2023-08-06T08:10:50;11.85;;;1.02;;
22778;SDS011;11556;51.194;3.800;2023-08-06T08:13:16;8.82;;;1.25;;
22778;SDS011;11556;51.194;3.800;2023-08-06T08:15:42;10.13;;;1.30;;
22778;SDS011;11556;51.194;3.800;2023-08-06T08:20:45;6.72;;;1.42;;
22778;SDS011;11556;51.194;3.800;2023-08-06T08:23:11;12.32;;;2.65;;
22778;SDS011;11556;51.194;3.800;2023-08-06T08:25:36;8.60;;;2.05;;
22778;SDS011;11556;51.194;3.800;2023-08-06T08:28:02;13.82;;;1.92;;
22778;SDS011;11556;51.194;3.800;2023-08-06T08:30:28;10.13;;;2.40;;
22778;SDS011;11556;51.194;3.800;2023-08-06T08:32:53;10.73;;;1.95;;
22778;SDS011;11556;51.194;3.800;2023-08-06T08:35:19;8.35;;;1.63;;
22778;SDS011;11556;51.194;3.800;2023-08-06T08:37:44;11.05;;;1.50;;
22778;SDS011;11556;51.194;3.800;2023-08-06T08:40:10;12.27;;;1.73;;
22778;SDS011;11556;51.194;3.800;2023-08-06T08:42:36;10.82;;;1.85;;
22778;SDS011;11556;51.194;3.800;2023-08-06T08:45:02;8.48;;;1.30;;
22778;SDS011;11556;51.194;3.800;2023-08-06T08:47:29;6.95;;;1.45;;
22778;SDS011;11556;51.194;3.800;2023-08-06T08:49:56;8.25;;;1.63;;
22778;SDS011;11556;51.194;3.800;2023-08-06T08:52:22;13.13;;;1.48;;
22778;SDS011;11556;51.194;3.800;2023-08-06T08:54:50;10.23;;;1.17;;
22778;SDS011;11556;51.194;3.800;2023-08-06T08:57:18;9.85;;;1.38;;
22778;SDS011;11556;51.194;3.800;2023-08-06T08:59:44;12.60;;;1.40;;
22778;SDS011;11556;51.194;3.800;2023-08-06T09:02:11;11.57;;;2.03;;
22778;SDS011;11556;51.194;3.800;2023-08-06T09:04:39;13.02;;;1.50;;
22778;SDS011;11556;51.194;3.800;2023-08-06T09:07:05;9.57;;;1.27;;
22778;SDS011;11556;51.194;3.800;2023-08-06T09:09:34;9.68;;;1.40;;
22778;SDS011;11556;51.194;3.800;2023-08-06T09:12:06;8.30;;;1.10;;
22778;SDS011;11556;51.194;3.800;2023-08-06T09:14:41;12.43;;;1.85;;
22778;SDS011;11556;51.194;3.800;2023-08-06T09:17:07;7.30;;;1.13;;
22778;SDS011;11556;51.194;3.800;2023-08-06T09:19:35;9.32;;;1.55;;
22778;SDS011;11556;51.194;3.800;2023-08-06T09:22:01;10.30;;;1.30;;
22778;SDS011;11556;51.194;3.800;2023-08-06T09:24:27;8.65;;;1.30;;
22778;SDS011;11556;51.194;3.800;2023-08-06T09:26:53;8.27;;;1.50;;
22778;SDS011;11556;51.194;3.800;2023-08-06T09:29:19;11.77;;;2.10;;
22778;SDS011;11556;51.194;3.800;2023-08-06T09:31:48;11.35;;;1.63;;
22778;SDS011;11556;51.194;3.800;2023-08-06T09:34:19;7.05;;;1.13;;
22778;SDS011;11556;51.194;3.800;2023-08-06T09:36:49;10.20;;;1.40;;
22778;SDS011;11556;51.194;3.800;2023-08-06T09:39:19;10.95;;;1.40;;
22778;SDS011;11556;51.194;3.800;2023-08-06T09:41:47;10.95;;;1.60;;
22778;SDS011;11556;51.194;3.800;2023-08-06T09:44:16;10.07;;;1.40;;
22778;SDS011;11556;51.194;3.800;2023-08-06T10:03:46;9.23;;;1.80;;
22778;SDS011;11556;51.194;3.800;2023-08-06T10:06:14;10.55;;;2.00;;
22778;SDS011;11556;51.194;3.800;2023-08-06T10:08:40;7.22;;;1.50;;
22778;SDS011;11556;51.194;3.800;2023-08-06T10:11:07;5.03;;;1.40;;
22778;SDS011;11556;51.194;3.800;2023-08-06T10:13:33;5.32;;;1.40;;
22778;SDS011;11556;51.194;3.800;2023-08-06T10:15:59;7.22;;;1.48;;
22778;SDS011;11556;51.194;3.800;2023-08-06T10:18:27;6.20;;;1.48;;
22778;SDS011;11556;51.194;3.800;2023-08-06T10:20:53;14.50;;;2.00;;
22778;SDS011;11556;51.194;3.800;2023-08-06T10:23:19;6.53;;;1.45;;
22778;SDS011;11556;51.194;3.800;2023-08-06T10:25:46;13.07;;;1.85;;
22778;SDS011;11556;51.194;3.800;2023-08-06T10:28:20;13.77;;;2.60;;
22778;SDS011;11556;51.194;3.800;2023-08-06T10:30:47;11.95;;;2.20;;
22778;SDS011;11556;51.194;3.800;2023-08-06T10:33:13;8.95;;;2.17;;
22778;SDS011;11556;51.194;3.800;2023-08-06T10:35:41;15.90;;;2.22;;
22778;SDS011;11556;51.194;3.800;2023-08-06T10:38:18;11.05;;;2.40;;
22778;SDS011;11556;51.194;3.800;2023-08-06T10:45:55;10.52;;;1.55;;
22778;SDS011;11556;51.194;3.800;2023-08-06T10:48:32;8.35;;;1.48;;
22778;SDS011;11556;51.194;3.800;2023-08-06T10:50:59;7.82;;;1.52;;
22778;SDS011;11556;51.194;3.800;2023-08-06T10:53:26;4.22;;;0.77;;
22778;SDS011;11556;51.194;3.800;2023-08-06T10:55:52;2.35;;;0.60;;
22778;SDS011;11556;51.194;3.800;2023-08-06T10:58:17;7.10;;;1.65;;
22778;SDS011;11556;51.194;3.800;2023-08-06T11:10:00;7.82;;;1.02;;
22778;SDS011;11556;51.194;3.800;2023-08-06T11:12:27;8.38;;;0.98;;
22778;SDS011;11556;51.194;3.800;2023-08-06T11:14:53;5.50;;;1.20;;
22778;SDS011;11556;51.194;3.800;2023-08-06T11:17:19;7.13;;;1.55;;
22778;SDS011;11556;51.194;3.800;2023-08-06T11:19:44;7.78;;;1.45;;
22778;SDS011;11556;51.194;3.800;2023-08-06T11:22:10;6.97;;;1.60;;
22778;SDS011;11556;51.194;3.800;2023-08-06T11:24:54;8.13;;;1.60;;
22778;SDS011;11556;51.194;3.800;2023-08-06T11:27:20;6.75;;;1.60;;
22778;SDS011;11556;51.194;3.800;2023-08-06T11:29:46;6.45;;;1.55;;
22778;SDS011;11556;51.194;3.800;2023-08-06T11:32:11;10.90;;;1.50;;
22778;SDS011;11556;51.194;3.800;2023-08-06T11:34:38;9.57;;;1.40;;
22778;SDS011;11556;51.194;3.800;2023-08-06T11:37:05;12.98;;;1.33;;
22778;SDS011;11556;51.194;3.800;2023-08-06T11:39:34;8.63;;;1.30;;
22778;SDS011;11556;51.194;3.800;2023-08-06T11:42:02;7.28;;;1.75;;
22778;SDS011;11556;51.194;3.800;2023-08-06T11:44:30;7.55;;;1.08;;
22778;SDS011;11556;51.194;3.800;2023-08-06T11:46:59;6.75;;;1.13;;
22778;SDS011;11556;51.194;3.800;2023-08-06T11:54:47;10.38;;;1.60;;
22778;SDS011;11556;51.194;3.800;2023-08-06T11:57:35;5.10;;;1.10;;
22778;SDS011;11556;51.194;3.800;2023-08-06T12:00:06;6.90;;;1.20;;
22778;SDS011;11556;51.194;3.800;2023-08-06T12:02:34;11.60;;;1.50;;
22778;SDS011;11556;51.194;3.800;2023-08-06T12:05:15;10.25;;;1.80;;
22778;SDS011;11556;51.194;3.800;2023-08-06T12:07:44;8.90;;;1.70;;
22778;SDS011;11556;51.194;3.800;2023-08-06T12:10:15;9.98;;;1.30;;
22778;SDS011;11556;51.194;3.800;2023-08-06T12:12:42;8.90;;;1.60;;
22778;SDS011;11556;51.194;3.800;2023-08-06T12:15:08;7.47;;;1.40;;
22778;SDS011;11556;51.194;3.800;2023-08-06T12:17:35;8.02;;;1.13;;
22778;SDS011;11556;51.194;3.800;2023-08-06T12:20:05;11.82;;;1.60;;
22778;SDS011;11556;51.194;3.800;2023-08-06T12:22:31;8.88;;;1.73;;
22778;SDS011;11556;51.194;3.800;2023-08-06T12:25:00;12.15;;;2.28;;
22778;SDS011;11556;51.194;3.800;2023-08-06T12:27:33;8.75;;;1.50;;
22778;SDS011;11556;51.194;3.800;2023-08-06T12:30:02;7.13;;;1.20;;
22778;SDS011;11556;51.194;3.800;2023-08-06T12:32:29;12.57;;;1.60;;
22778;SDS011;11556;51.194;3.800;2023-08-06T12:34:54;8.73;;;2.22;;
22778;SDS011;11556;51.194;3.800;2023-08-06T12:37:20;7.13;;;1.52;;
22778;SDS011;11556;51.194;3.800;2023-08-06T12:39:46;10.13;;;2.05;;
22778;SDS011;11556;51.194;3.800;2023-08-06T12:42:11;6.57;;;1.63;;
22778;SDS011;11556;51.194;3.800;2023-08-06T12:44:37;7.25;;;1.55;;
22778;SDS011;11556;51.194;3.800;2023-08-06T12:47:03;10.77;;;1.50;;
22778;SDS011;11556;51.194;3.800;2023-08-06T12:49:28;9.52;;;1.77;;
22778;SDS011;11556;51.194;3.800;2023-08-06T12:51:55;10.55;;;1.63;;
22778;SDS011;11556;51.194;3.800;2023-08-06T12:54:21;9.57;;;1.80;;
22778;SDS011;11556;51.194;3.800;2023-08-06T12:56:48;13.80;;;2.08;;
22778;SDS011;11556;51.194;3.800;2023-08-06T12:59:14;11.77;;;1.77;;
22778;SDS011;11556;51.194;3.800;2023-08-06T13:01:41;13.90;;;2.00;;
22778;SDS011;11556;51.194;3.800;2023-08-06T13:04:07;8.23;;;1.80;;
22778;SDS011;11556;51.194;3.800;2023-08-06T13:06:33;8.02;;;1.80;;
22778;SDS011;11556;51.194;3.800;2023-08-06T13:09:11;8.25;;;2.30;;
22778;SDS011;11556;51.194;3.800;2023-08-06T13:11:38;6.72;;;1.92;;
22778;SDS011;11556;51.194;3.800;2023-08-06T13:14:05;5.80;;;1.90;;
22778;SDS011;11556;51.194;3.800;2023-08-06T13:16:36;8.10;;;1.55;;
22778;SDS011;11556;51.194;3.800;2023-08-06T13:19:03;7.60;;;1.27;;
22778;SDS011;11556;51.194;3.800;2023-08-06T13:24:16;6.03;;;1.25;;
22778;SDS011;11556;51.194;3.800;2023-08-06T13:26:42;7.25;;;1.52;;
22778;SDS011;11556;51.194;3.800;2023-08-06T13:29:08;5.72;;;1.63;;
22778;SDS011;11556;51.194;3.800;2023-08-06T13:31:34;6.43;;;1.50;;
22778;SDS011;11556;51.194;3.800;2023-08-06T13:34:00;10.32;;;1.77;;
22778;SDS011;11556;51.194;3.800;2023-08-06T13:36:26;6.95;;;1.58;;
22778;SDS011;11556;51.194;3.800;2023-08-06T13:38:52;10.82;;;1.95;;
22778;SDS011;11556;51.194;3.800;2023-08-06T13:41:17;8.38;;;1.83;;
22778;SDS011;11556;51.194;3.800;2023-08-06T13:43:43;11.57;;;1.98;;
22778;SDS011;11556;51.194;3.800;2023-08-06T13:46:09;9.77;;;1.75;;
22778;SDS011;11556;51.194;3.800;2023-08-06T13:48:39;13.10;;;2.40;;
22778;SDS011;11556;51.194;3.800;2023-08-06T13:51:05;8.85;;;2.00;;
22778;SDS011;11556;51.194;3.800;2023-08-06T13:53:31;6.38;;;1.80;;
22778;SDS011;11556;51.194;3.800;2023-08-06T13:55:56;9.90;;;2.13;;
22778;SDS011;11556;51.194;3.800;2023-08-06T13:58:22;6.68;;;1.50;;
22778;SDS011;11556;51.194;3.800;2023-08-06T14:00:49;10.50;;;1.80;;
22778;SDS011;11556;51.194;3.800;2023-08-06T14:03:17;7.80;;;1.55;;
22778;SDS011;11556;51.194;3.800;2023-08-06T14:05:43;7.50;;;1.25;;
22778;SDS011;11556;51.194;3.800;2023-08-06T14:08:09;8.05;;;1.67;;
22778;SDS011;11556;51.194;3.800;2023-08-06T14:10:35;10.70;;;1.65;;
22778;SDS011;11556;51.194;3.800;2023-08-06T14:13:01;7.28;;;1.75;;
22778;SDS011;11556;51.194;3.800;2023-08-06T14:15:26;11.35;;;2.10;;
22778;SDS011;11556;51.194;3.800;2023-08-06T14:17:52;15.23;;;2.28;;
22778;SDS011;11556;51.194;3.800;2023-08-06T14:20:18;13.57;;;2.15;;
22778;SDS011;11556;51.194;3.800;2023-08-06T14:22:43;9.48;;;1.60;;
22778;SDS011;11556;51.194;3.800;2023-08-06T14:25:09;4.60;;;1.35;;
22778;SDS011;11556;51.194;3.800;2023-08-06T14:27:34;7.40;;;1.42;;
22778;SDS011;11556;51.194;3.800;2023-08-06T14:30:00;10.65;;;1.70;;
22778;SDS011;11556;51.194;3.800;2023-08-06T14:32:28;5.90;;;1.70;;
22778;SDS011;11556;51.194;3.800;2023-08-06T14:34:54;7.65;;;1.38;;
22778;SDS011;11556;51.194;3.800;2023-08-06T14:37:19;7.85;;;1.25;;
22778;SDS011;11556;51.194;3.800;2023-08-06T14:39:45;11.48;;;1.45;;
22778;SDS011;11556;51.194;3.800;2023-08-06T14:42:11;4.00;;;1.05;;
22778;SDS011;11556;51.194;3.800;2023-08-06T14:44:36;5.43;;;1.05;;
22778;SDS011;11556;51.194;3.800;2023-08-06T14:47:02;4.20;;;1.17;;
22778;SDS011;11556;51.194;3.800;2023-08-06T14:49:28;6.28;;;0.80;;
22778;SDS011;11556;51.194;3.800;2023-08-06T14:51:53;3.33;;;0.90;;
22778;SDS011;11556;51.194;3.800;2023-08-06T14:54:19;5.53;;;1.20;;
22778;SDS011;11556;51.194;3.800;2023-08-06T14:56:44;3.95;;;1.20;;
22778;SDS011;11556;51.194;3.800;2023-08-06T14:59:10;6.65;;;1.48;;
22778;SDS011;11556;51.194;3.800;2023-08-06T15:01:36;7.55;;;1.95;;
22778;SDS011;11556;51.194;3.800;2023-08-06T15:04:01;7.93;;;1.50;;
22778;SDS011;11556;51.194;3.800;2023-08-06T15:06:27;11.43;;;1.67;;
22778;SDS011;11556;51.194;3.800;2023-08-06T15:08:53;10.70;;;2.33;;
22778;SDS011;11556;51.194;3.800;2023-08-06T15:11:23;8.88;;;1.58;;
22778;SDS011;11556;51.194;3.800;2023-08-06T15:13:49;10.85;;;2.10;;
22778;SDS011;11556;51.194;3.800;2023-08-06T15:16:14;12.80;;;1.55;;
22778;SDS011;11556;51.194;3.800;2023-08-06T15:18:40;9.48;;;2.13;;
22778;SDS011;11556;51.194;3.800;2023-08-06T15:21:07;12.10;;;1.95;;
22778;SDS011;11556;51.194;3.800;2023-08-06T15:23:32;10.77;;;2.08;;
22778;SDS011;11556;51.194;3.800;2023-08-06T15:25:58;9.93;;;1.50;;
22778;SDS011;11556;51.194;3.800;2023-08-06T15:28:24;10.27;;;1.50;;